Clara — V2GQ9 — position and weather

sailwx.info

Track history (hours):
 
Tides and Currents Weather Stations Pressure Air Temp Water Temp Dewpoint Dewpoint Depression Visibility Wind Speed Wind Dir Waves Ship Positions

Clara

Last reported at 2018-Jun-19 05:59 UTC. Time now 2018-Jun-19 13:45 UTC.
Position N 55°25' W 005°36'.

Length 106 m; draft 5.8 m.

Type: Cargo ship. MMSI: 304054000.

Date/timePositionNaut miles runAvg speedWind from/ knotsBaromVisibWave heightAir tempDewpointWater temp
2018-Jun-19 05:59N 55°25' W 005°36'0 0.0
2018-Jun-19 05:29N 55°25' W 005°36'0 0.0
2018-Jun-19 01:47N 55°25' W 005°36'0 0.0
2018-Jun-19 01:23N 55°25' W 005°36'0 0.0
2018-Jun-19 00:53N 55°25' W 005°36'0 0.0
2018-Jun-19 00:23N 55°25' W 005°36'0 0.0
2018-Jun-18 22:47N 55°25' W 005°36'0 0.0
2018-Jun-18 22:23N 55°25' W 005°36'0 0.0
2018-Jun-18 21:53N 55°25' W 005°36'0 0.0
2018-Jun-18 18:23N 55°25' W 005°36'0 0.0
2018-Jun-18 17:53N 55°25' W 005°36'0 0.0
2018-Jun-18 17:23N 55°25' W 005°36'0 0.0
2018-Jun-18 16:53N 55°25' W 005°36'0 0.0
2018-Jun-18 16:22N 55°25' W 005°36'0 0.0
2018-Jun-18 15:52N 55°25' W 005°36'0 0.0
2018-Jun-18 15:10N 55°25' W 005°36'0 0.0
2018-Jun-18 14:52N 55°25' W 005°36'0 0.0
2018-Jun-18 14:28N 55°25' W 005°36'0 0.0
2018-Jun-18 03:46N 55°25' W 005°36'0 0.0
2018-Jun-18 03:28N 55°25' W 005°36'0 0.0
2018-Jun-18 02:58N 55°25' W 005°36'0 0.0
2018-Jun-18 02:28N 55°25' W 005°36'0 0.0
2018-Jun-18 01:58N 55°25' W 005°36'0 0.0
2018-Jun-17 16:32N 55°25' W 005°36'0 0.5
2018-Jun-17 16:19N 55°25' W 005°36'15 5.4
2018-Jun-17 13:33N 55°12' W 005°25'0 7.4
2018-Jun-17 13:30N 55°12' W 005°25'7 8.3
2018-Jun-17 12:42N 55°05' W 005°23'9 8.7
2018-Jun-17 11:42N 54°57' W 005°19'1 7.7
2018-Jun-17 11:30N 54°55' W 005°18'4 7.8
2018-Jun-17 11:00N 54°51' W 005°17'4 7.8
2018-Jun-17 10:30N 54°48' W 005°16'4 7.3
2018-Jun-17 10:00N 54°44' W 005°15'4 7.8
2018-Jun-17 09:30N 54°40' W 005°14'3 6.7
2018-Jun-17 09:00N 54°37' W 005°14'4 7.2
2018-Jun-17 08:30N 54°33' W 005°13'3 6.8
2018-Jun-17 08:00N 54°30' W 005°12'3 7.0
2018-Jun-17 07:30N 54°26' W 005°11'4 7.3
2018-Jun-17 07:00N 54°23' W 005°12'4 7.8
2018-Jun-17 06:30N 54°19' W 005°13'4 7.7
2018-Jun-17 06:00N 54°15' W 005°14'62 8.4
2018-Jun-16 22:40N 53°14' W 005°28'210.1
2018-Jun-16 22:26N 53°12' W 005°28'510.7
2018-Jun-16 21:57N 53°07' W 005°29'510.8
2018-Jun-16 21:30N 53°02' W 005°30'510.9
2018-Jun-16 21:00N 52°56' W 005°31'510.3
2018-Jun-16 20:30N 52°51' W 005°31'5 9.6
2018-Jun-16 20:00N 52°46' W 005°31'4 9.0
2018-Jun-16 19:31N 52°42' W 005°31'66 8.2
2018-Jun-16 11:24N 51°36' W 005°42'410.0
2018-Jun-16 11:00N 51°34' W 005°37'5 9.4
2018-Jun-16 10:31N 51°29' W 005°38'6210.8
2018-Jun-16 04:43N 50°27' W 005°51'211.5
2018-Jun-16 04:30N 50°25' W 005°51'54 8.4
2018-Jun-15 22:05N 49°57' W 004°39'110.9
2018-Jun-15 21:59N 49°58' W 004°37'510.7
2018-Jun-15 21:30N 49°59' W 004°29'810.3
2018-Jun-15 20:44N 50°00' W 004°17'5 9.5
2018-Jun-15 20:11N 50°01' W 004°09'2 9.2
2018-Jun-15 19:59N 50°01' W 004°06'5 8.9
2018-Jun-15 19:29N 50°02' W 003°59'4 8.6
2018-Jun-15 19:00N 50°03' W 003°53'6 8.6
2018-Jun-15 18:16N 50°05' W 003°44'2 8.9
2018-Jun-15 18:00N 50°05' W 003°40'5 9.1
2018-Jun-15 17:30N 50°06' W 003°33'5 9.9
2018-Jun-15 17:00N 50°07' W 003°25'510.6
2018-Jun-15 16:30N 50°08' W 003°17'611.3
2018-Jun-15 16:00N 50°09' W 003°09'611.9
2018-Jun-15 15:30N 50°10' W 002°60'612.6
2018-Jun-15 15:00N 50°11' W 002°50'713.2
2018-Jun-15 14:30N 50°13' W 002°40'713.3
2018-Jun-15 13:59N 50°14' W 002°29'613.2
2018-Jun-15 13:30N 50°15' W 002°19'712.4
2018-Jun-15 12:58N 50°16' W 002°09'1610.6
2018-Jun-15 11:27N 50°19' W 001°44'7 8.7
2018-Jun-15 10:38N 50°21' W 001°33'1 7.9
2018-Jun-15 10:30N 50°21' W 001°32'4 7.6
2018-Jun-15 10:00N 50°22' W 001°26'39 8.3
2018-Jun-15 05:19N 50°29' W 000°26'1911.9
2018-Jun-15 03:43N 50°33' E 000°03'312.0
2018-Jun-15 03:30N 50°34' E 000°07'611.8
2018-Jun-15 03:00N 50°36' E 000°17'611.6
2018-Jun-15 02:31N 50°37' E 000°25'611.1
2018-Jun-15 02:01N 50°38' E 000°34'510.7
2018-Jun-15 01:30N 50°41' E 000°41'510.2
2018-Jun-15 01:00N 50°44' E 000°47'5 9.5
2018-Jun-15 00:31N 50°47' E 000°53'5 9.1
2018-Jun-15 00:00N 50°50' E 000°59'4 9.0
2018-Jun-14 23:30N 50°53' E 001°05'4 8.9
2018-Jun-14 23:00N 50°55' E 001°10'5 9.1
2018-Jun-14 22:30N 50°58' E 001°16'5 9.6
2018-Jun-14 22:01N 51°01' E 001°21'611.0
2018-Jun-14 21:30N 51°05' E 001°28'612.6
2018-Jun-14 21:00N 51°09' E 001°36'612.8
2018-Jun-14 20:30N 51°13' E 001°44'612.9
2018-Jun-14 20:00N 51°19' E 001°49'612.3
2018-Jun-14 19:30N 51°24' E 001°53'611.4
2018-Jun-14 19:00N 51°30' E 001°56'510.6
2018-Jun-14 18:30N 51°35' E 001°58'5 9.9
2018-Jun-14 18:00N 51°39' E 002°01'4 8.9
2018-Jun-14 17:30N 51°44' E 002°04'4 8.2
2018-Jun-14 17:00N 51°47' E 002°06'4 7.6
2018-Jun-14 16:30N 51°51' E 002°09'4 7.2
2018-Jun-14 16:00N 51°54' E 002°11'3 6.5
2018-Jun-14 15:30N 51°57' E 002°13'3 6.4
2018-Jun-14 14:59N 52°01' E 002°13'19 6.1
2018-Jun-14 11:53N 52°19' E 002°13'3 7.5
2018-Jun-14 11:28N 52°22' E 002°12'17 8.4
2018-Jun-14 09:22N 52°40' E 002°11'5 8.9
2018-Jun-14 08:48N 52°45' E 002°12'310.3
2018-Jun-14 08:30N 52°48' E 002°09'610.9
2018-Jun-14 08:00N 52°52' E 002°03'511.1
2018-Jun-14 07:30N 52°54' E 001°55'611.7
2018-Jun-14 07:00N 52°58' E 001°47'611.6
2018-Jun-14 06:30N 53°02' E 001°40'611.0
2018-Jun-14 06:00N 53°05' E 001°33'610.6
2018-Jun-14 05:28N 53°09' E 001°26'510.4
2018-Jun-14 05:00N 53°12' E 001°20'510.3
2018-Jun-14 04:30N 53°16' E 001°13'510.0
2018-Jun-14 03:58N 53°20' E 001°08'5 9.9
2018-Jun-14 03:30N 53°24' E 001°04'6 9.9
2018-Jun-14 02:57N 53°29' E 001°00'38 8.6
2018-Jun-13 22:32N 53°59' E 000°21'0 7.8
2018-Jun-13 22:30N 53°59' E 000°21'4 8.0
2018-Jun-13 22:00N 54°02' E 000°16'4 7.9
2018-Jun-13 21:30N 54°05' E 000°11'4 7.8
2018-Jun-13 21:00N 54°08' E 000°07'4 8.2
2018-Jun-13 20:30N 54°12' E 000°04'4 8.5
2018-Jun-13 20:00N 54°15' E 000°01'4 8.9
2018-Jun-13 19:30N 54°19' W 000°04'5 9.6
2018-Jun-13 19:00N 54°22' W 000°10'5 9.8
2018-Jun-13 18:30N 54°25' W 000°16'510.4
2018-Jun-13 18:01N 54°29' W 000°22'  
2018-Jun-10 22:30N 54°35' W 001°14'1 1.5
2018-Jun-10 21:59N 54°35' W 001°13'3 6.8
2018-Jun-10 21:30N 54°37' W 001°09'4 8.7
2018-Jun-10 20:59N 54°41' W 001°05'4 7.3
2018-Jun-10 20:30N 54°42' W 000°59'3 6.9
2018-Jun-10 20:00N 54°42' W 000°53'  
Track history (hours):
 
Tides and Currents Weather Stations Pressure Air Temp Water Temp Dewpoint Dewpoint Depression Visibility Wind Speed Wind Dir Waves Ship Positions

Clara

Last reported at 2018-Jun-19 05:59 UTC. Time now 2018-Jun-19 13:45 UTC.
Position N 55°25' W 005°36'.

Length 106 m; draft 5.8 m.

Type: Cargo ship. MMSI: 304054000.

Date/timePositionNaut miles runAvg speedWind from/ knotsBaromVisibWave heightAir tempDewpointWater temp
2018-Jun-19 05:59N 55°25' W 005°36'0 0.0
2018-Jun-19 05:29N 55°25' W 005°36'0 0.0
2018-Jun-19 01:47N 55°25' W 005°36'0 0.0
2018-Jun-19 01:23N 55°25' W 005°36'0 0.0
2018-Jun-19 00:53N 55°25' W 005°36'0 0.0
2018-Jun-19 00:23N 55°25' W 005°36'0 0.0
2018-Jun-18 22:47N 55°25' W 005°36'0 0.0
2018-Jun-18 22:23N 55°25' W 005°36'0 0.0
2018-Jun-18 21:53N 55°25' W 005°36'0 0.0
2018-Jun-18 18:23N 55°25' W 005°36'0 0.0
2018-Jun-18 17:53N 55°25' W 005°36'0 0.0
2018-Jun-18 17:23N 55°25' W 005°36'0 0.0
2018-Jun-18 16:53N 55°25' W 005°36'0 0.0
2018-Jun-18 16:22N 55°25' W 005°36'0 0.0
2018-Jun-18 15:52N 55°25' W 005°36'0 0.0
2018-Jun-18 15:10N 55°25' W 005°36'0 0.0
2018-Jun-18 14:52N 55°25' W 005°36'0 0.0
2018-Jun-18 14:28N 55°25' W 005°36'0 0.0
2018-Jun-18 03:46N 55°25' W 005°36'0 0.0
2018-Jun-18 03:28N 55°25' W 005°36'0 0.0
2018-Jun-18 02:58N 55°25' W 005°36'0 0.0
2018-Jun-18 02:28N 55°25' W 005°36'0 0.0
2018-Jun-18 01:58N 55°25' W 005°36'0 0.0
2018-Jun-17 16:32N 55°25' W 005°36'0 0.5
2018-Jun-17 16:19N 55°25' W 005°36'15 5.4
2018-Jun-17 13:33N 55°12' W 005°25'0 7.4
2018-Jun-17 13:30N 55°12' W 005°25'7 8.3
2018-Jun-17 12:42N 55°05' W 005°23'9 8.7
2018-Jun-17 11:42N 54°57' W 005°19'1 7.7
2018-Jun-17 11:30N 54°55' W 005°18'4 7.8
2018-Jun-17 11:00N 54°51' W 005°17'4 7.8
2018-Jun-17 10:30N 54°48' W 005°16'4 7.3
2018-Jun-17 10:00N 54°44' W 005°15'4 7.8
2018-Jun-17 09:30N 54°40' W 005°14'3 6.7
2018-Jun-17 09:00N 54°37' W 005°14'4 7.2
2018-Jun-17 08:30N 54°33' W 005°13'3 6.8
2018-Jun-17 08:00N 54°30' W 005°12'3 7.0
2018-Jun-17 07:30N 54°26' W 005°11'4 7.3
2018-Jun-17 07:00N 54°23' W 005°12'4 7.8
2018-Jun-17 06:30N 54°19' W 005°13'4 7.7
2018-Jun-17 06:00N 54°15' W 005°14'62 8.4
2018-Jun-16 22:40N 53°14' W 005°28'210.1
2018-Jun-16 22:26N 53°12' W 005°28'510.7
2018-Jun-16 21:57N 53°07' W 005°29'510.8
2018-Jun-16 21:30N 53°02' W 005°30'510.9
2018-Jun-16 21:00N 52°56' W 005°31'510.3
2018-Jun-16 20:30N 52°51' W 005°31'5 9.6
2018-Jun-16 20:00N 52°46' W 005°31'4 9.0
2018-Jun-16 19:31N 52°42' W 005°31'66 8.2
2018-Jun-16 11:24N 51°36' W 005°42'410.0
2018-Jun-16 11:00N 51°34' W 005°37'5 9.4
2018-Jun-16 10:31N 51°29' W 005°38'6210.8
2018-Jun-16 04:43N 50°27' W 005°51'211.5
2018-Jun-16 04:30N 50°25' W 005°51'54 8.4
2018-Jun-15 22:05N 49°57' W 004°39'110.9
2018-Jun-15 21:59N 49°58' W 004°37'510.7
2018-Jun-15 21:30N 49°59' W 004°29'810.3
2018-Jun-15 20:44N 50°00' W 004°17'5 9.5
2018-Jun-15 20:11N 50°01' W 004°09'2 9.2
2018-Jun-15 19:59N 50°01' W 004°06'5 8.9
2018-Jun-15 19:29N 50°02' W 003°59'4 8.6
2018-Jun-15 19:00N 50°03' W 003°53'6 8.6
2018-Jun-15 18:16N 50°05' W 003°44'2 8.9
2018-Jun-15 18:00N 50°05' W 003°40'5 9.1
2018-Jun-15 17:30N 50°06' W 003°33'5 9.9
2018-Jun-15 17:00N 50°07' W 003°25'510.6
2018-Jun-15 16:30N 50°08' W 003°17'611.3
2018-Jun-15 16:00N 50°09' W 003°09'611.9
2018-Jun-15 15:30N 50°10' W 002°60'612.6
2018-Jun-15 15:00N 50°11' W 002°50'713.2
2018-Jun-15 14:30N 50°13' W 002°40'713.3
2018-Jun-15 13:59N 50°14' W 002°29'613.2
2018-Jun-15 13:30N 50°15' W 002°19'712.4
2018-Jun-15 12:58N 50°16' W 002°09'1610.6
2018-Jun-15 11:27N 50°19' W 001°44'7 8.7
2018-Jun-15 10:38N 50°21' W 001°33'1 7.9
2018-Jun-15 10:30N 50°21' W 001°32'4 7.6
2018-Jun-15 10:00N 50°22' W 001°26'39 8.3
2018-Jun-15 05:19N 50°29' W 000°26'1911.9
2018-Jun-15 03:43N 50°33' E 000°03'312.0
2018-Jun-15 03:30N 50°34' E 000°07'611.8
2018-Jun-15 03:00N 50°36' E 000°17'611.6
2018-Jun-15 02:31N 50°37' E 000°25'611.1
2018-Jun-15 02:01N 50°38' E 000°34'510.7
2018-Jun-15 01:30N 50°41' E 000°41'510.2
2018-Jun-15 01:00N 50°44' E 000°47'5 9.5
2018-Jun-15 00:31N 50°47' E 000°53'5 9.1
2018-Jun-15 00:00N 50°50' E 000°59'4 9.0
2018-Jun-14 23:30N 50°53' E 001°05'4 8.9
2018-Jun-14 23:00N 50°55' E 001°10'5 9.1
2018-Jun-14 22:30N 50°58' E 001°16'5 9.6
2018-Jun-14 22:01N 51°01' E 001°21'611.0
2018-Jun-14 21:30N 51°05' E 001°28'612.6
2018-Jun-14 21:00N 51°09' E 001°36'612.8
2018-Jun-14 20:30N 51°13' E 001°44'612.9
2018-Jun-14 20:00N 51°19' E 001°49'612.3
2018-Jun-14 19:30N 51°24' E 001°53'611.4
2018-Jun-14 19:00N 51°30' E 001°56'510.6
2018-Jun-14 18:30N 51°35' E 001°58'5 9.9
2018-Jun-14 18:00N 51°39' E 002°01'4 8.9
2018-Jun-14 17:30N 51°44' E 002°04'4 8.2
2018-Jun-14 17:00N 51°47' E 002°06'4 7.6
2018-Jun-14 16:30N 51°51' E 002°09'4 7.2
2018-Jun-14 16:00N 51°54' E 002°11'3 6.5
2018-Jun-14 15:30N 51°57' E 002°13'3 6.4
2018-Jun-14 14:59N 52°01' E 002°13'19 6.1
2018-Jun-14 11:53N 52°19' E 002°13'3 7.5
2018-Jun-14 11:28N 52°22' E 002°12'17 8.4
2018-Jun-14 09:22N 52°40' E 002°11'5 8.9
2018-Jun-14 08:48N 52°45' E 002°12'310.3
2018-Jun-14 08:30N 52°48' E 002°09'610.9
2018-Jun-14 08:00N 52°52' E 002°03'511.1
2018-Jun-14 07:30N 52°54' E 001°55'611.7
2018-Jun-14 07:00N 52°58' E 001°47'611.6
2018-Jun-14 06:30N 53°02' E 001°40'611.0
2018-Jun-14 06:00N 53°05' E 001°33'610.6
2018-Jun-14 05:28N 53°09' E 001°26'510.4
2018-Jun-14 05:00N 53°12' E 001°20'510.3
2018-Jun-14 04:30N 53°16' E 001°13'510.0
2018-Jun-14 03:58N 53°20' E 001°08'5 9.9
2018-Jun-14 03:30N 53°24' E 001°04'6 9.9
2018-Jun-14 02:57N 53°29' E 001°00'38 8.6
2018-Jun-13 22:32N 53°59' E 000°21'0 7.8
2018-Jun-13 22:30N 53°59' E 000°21'4 8.0
2018-Jun-13 22:00N 54°02' E 000°16'4 7.9
2018-Jun-13 21:30N 54°05' E 000°11'4 7.8
2018-Jun-13 21:00N 54°08' E 000°07'4 8.2
2018-Jun-13 20:30N 54°12' E 000°04'4 8.5
2018-Jun-13 20:00N 54°15' E 000°01'4 8.9
2018-Jun-13 19:30N 54°19' W 000°04'5 9.6
2018-Jun-13 19:00N 54°22' W 000°10'5 9.8
2018-Jun-13 18:30N 54°25' W 000°16'510.4
2018-Jun-13 18:01N 54°29' W 000°22'  
2018-Jun-10 22:30N 54°35' W 001°14'1 1.5
2018-Jun-10 21:59N 54°35' W 001°13'3 6.8
2018-Jun-10 21:30N 54°37' W 001°09'4 8.7
2018-Jun-10 20:59N 54°41' W 001°05'4 7.3
2018-Jun-10 20:30N 54°42' W 000°59'3 6.9
2018-Jun-10 20:00N 54°42' W 000°53'  

Dump ship's entire track history